Time;durP1;ratioP1;P1;durP2;ratioP2;P2;SDS_P1;SDS_P2;PMS_P1;PMS_P2;Temp;Humidity;BMP_temperature;BMP_pressure;BME280_temperature;BME280_humidity;BME280_pressure;Samples;Min_cycle;Max_cycle;Signal;HPM_P1;HPM_P2
2022/07/09 00:01:16;;;;;;;;;;;;;;;18.28;50.12;99055.88;5129019;27;20363;-57
2022/07/09 00:03:44;;;;;;;;;;;;;;;18.23;50.47;99058.84;5127538;27;19926;-57
2022/07/09 00:09:08;;;;;;;;;;;;;;;18.22;50.51;99054.47;5127896;27;19995;-57
2022/07/09 00:11:36;;;;;;;;;;;;;;;18.18;50.85;99056.28;5129111;27;19919;-57
2022/07/09 00:14:04;;;;;;;;;;;;;;;18.14;51.16;99053.38;5127885;27;19919;-57
2022/07/09 00:16:32;;;;;;;;;;;;;;;18.11;51.12;99045.81;5128686;27;19930;-56
2022/07/09 00:19:01;;;;;;;;;;;;;;;18.15;51.10;99046.72;5127150;27;19937;-56
2022/07/09 00:21:29;;;;;;;;;;;;;;;18.11;51.27;99045.81;5127483;27;19920;-56
2022/07/09 00:23:58;;;;;;;;;;;;;;;18.06;50.97;99049.56;5125867;27;20130;-57
2022/07/09 00:26:27;;;;;;;;;;;;;;;18.05;51.38;99041.63;5127565;27;20280;-57
2022/07/09 00:28:56;;;;;;;;;;;;;;;18.05;51.43;99049.88;5128934;27;19919;-57
2022/07/09 00:31:24;;;;;;;;;;;;;;;18.04;50.94;99045.50;5126754;27;19931;-56
2022/07/09 00:33:52;;;;;;;;;;;;;;;17.98;50.76;99044.91;5120096;27;19923;-56
2022/07/09 00:36:20;;;;;;;;;;;;;;;17.96;50.81;99035.38;5115569;27;20256;-57
2022/07/09 00:38:49;;;;;;;;;;;;;;;17.89;50.89;99033.13;5129647;27;19926;-56
2022/07/09 00:41:17;;;;;;;;;;;;;;;17.83;51.08;99028.97;5120493;27;19941;-56
2022/07/09 00:43:48;;;;;;;;;;;;;;;17.85;51.50;99026.72;5145466;27;19919;-57
2022/07/09 00:46:16;;;;;;;;;;;;;;;17.74;51.58;99033.72;5128097;27;20275;-57
2022/07/09 00:48:44;;;;;;;;;;;;;;;17.73;51.78;99030.16;5127966;27;20058;-57
2022/07/09 00:51:15;;;;;;;;;;;;;;;17.70;51.85;99030.81;5122249;27;20234;-59
2022/07/09 00:53:43;;;;;;;;;;;;;;;17.75;51.82;99030.66;5122812;27;20266;-59
2022/07/09 00:56:15;;;;;;;;;;;;;;;17.69;52.01;99025.66;5128693;27;20115;-59
2022/07/09 00:58:43;;;;;;;;;;;;;;;17.70;51.96;99030.81;5130398;27;19994;-59
2022/07/09 01:01:16;;;;;;;;;;;;;;;17.67;52.13;99034.19;5128229;27;19926;-58
2022/07/09 01:03:43;;;;;;;;;;;;;;;17.77;51.78;99020.13;5126808;27;19923;-59
2022/07/09 01:06:18;;;;;;;;;;;;;;;17.65;52.38;99021.94;5129351;27;19934;-59
2022/07/09 01:08:47;;;;;;;;;;;;;;;17.75;52.25;99022.41;5126045;27;19958;-58
2022/07/09 01:11:15;;;;;;;;;;;;;;;17.58;52.68;99022.47;5128492;27;19919;-59
2022/07/09 01:13:43;;;;;;;;;;;;;;;17.53;53.08;99020.69;5116831;27;19927;-59
2022/07/09 01:16:16;;;;;;;;;;;;;;;17.47;53.04;99024.78;5120874;27;19924;-59
2022/07/09 01:18:45;;;;;;;;;;;;;;;17.45;53.48;99017.97;5125437;27;19919;-59
2022/07/09 01:21:15;;;;;;;;;;;;;;;17.45;53.61;99028.97;5120460;27;19979;-57
2022/07/09 01:23:43;;;;;;;;;;;;;;;17.37;54.03;99007.84;5125344;27;20285;-58
2022/07/09 01:26:14;;;;;;;;;;;;;;;17.35;54.32;99019.16;5107366;27;19935;-59
2022/07/09 01:28:42;;;;;;;;;;;;;;;17.42;54.27;99019.47;5109041;27;19927;-58
2022/07/09 01:31:16;;;;;;;;;;;;;;;17.37;54.33;99016.88;5124433;27;20375;-59
2022/07/09 01:33:45;;;;;;;;;;;;;;;17.38;54.30;99012.19;5127198;27;19952;-58
2022/07/09 01:36:19;;;;;;;;;;;;;;;17.37;54.41;99013.34;5133566;27;20235;-57
2022/07/09 01:38:47;;;;;;;;;;;;;;;17.31;55.04;99009.97;5136941;27;20354;-56
2022/07/09 01:41:15;;;;;;;;;;;;;;;17.33;54.89;99004.13;5129874;27;19984;-57
2022/07/09 01:43:43;;;;;;;;;;;;;;;17.34;55.06;99006.53;5127758;27;20277;-57
2022/07/09 01:46:18;;;;;;;;;;;;;;;17.35;55.59;99008.16;5127304;27;19920;-57
2022/07/09 01:48:46;;;;;;;;;;;;;;;17.45;55.56;99007.00;5120210;27;19923;-57
2022/07/09 01:51:15;;;;;;;;;;;;;;;17.11;56.36;99005.19;5125315;27;19926;-57
2022/07/09 01:53:45;;;;;;;;;;;;;;;17.17;56.27;99006.63;5132988;27;19927;-57
2022/07/09 01:56:14;;;;;;;;;;;;;;;17.15;56.48;99004.22;5128941;27;19930;-57
2022/07/09 01:58:43;;;;;;;;;;;;;;;17.18;56.45;99002.72;5127758;27;20250;-57
2022/07/09 02:01:17;;;;;;;;;;;;;;;17.02;56.55;98999.72;5115555;27;19923;-57
2022/07/09 02:03:46;;;;;;;;;;;;;;;17.04;56.44;99000.19;5122277;27;19920;-56
2022/07/09 02:06:19;;;;;;;;;;;;;;;17.00;56.67;98993.75;5126662;27;19927;-57
2022/07/09 02:08:48;;;;;;;;;;;;;;;17.01;56.77;98987.94;5126295;27;19941;-57
2022/07/09 02:11:19;;;;;;;;;;;;;;;17.00;56.64;98991.81;5136560;27;19927;-57
2022/07/09 02:13:48;;;;;;;;;;;;;;;16.84;57.39;98992.66;5095811;27;19919;-57
2022/07/09 02:16:16;;;;;;;;;;;;;;;16.95;57.13;98999.41;5124677;27;19920;-57
2022/07/09 02:18:46;;;;;;;;;;;;;;;16.89;57.46;98989.75;5124472;27;19920;-57
2022/07/09 02:21:23;;;;;;;;;;;;;;;16.81;57.57;98999.59;5133759;27;19939;-57
2022/07/09 02:23:58;;;;;;;;;;;;;;;16.80;57.61;99002.66;5123934;27;20301;-56
2022/07/09 02:26:27;;;;;;;;;;;;;;;16.71;58.10;98998.00;5124882;27;20285;-57
2022/07/09 02:28:56;;;;;;;;;;;;;;;16.73;57.86;98995.75;5121749;27;19933;-58
2022/07/09 02:31:24;;;;;;;;;;;;;;;16.81;57.84;98996.03;5123212;27;19923;-56
2022/07/09 02:33:52;;;;;;;;;;;;;;;16.80;57.36;99000.72;5127073;28;19920;-57
2022/07/09 02:36:20;;;;;;;;;;;;;;;16.60;58.00;99010.41;5128553;27;19924;-57
2022/07/09 02:38:48;;;;;;;;;;;;;;;16.65;58.08;98999.25;5124058;27;19926;-57
2022/07/09 02:41:18;;;;;;;;;;;;;;;16.66;58.24;99009.09;5128981;27;19920;-57
2022/07/09 02:43:46;;;;;;;;;;;;;;;16.73;58.06;99003.19;5138185;27;19931;-56
2022/07/09 02:46:20;;;;;;;;;;;;;;;16.63;58.24;99004.28;5132664;27;19919;-56
2022/07/09 02:48:48;;;;;;;;;;;;;;;16.67;58.14;99005.25;5108642;28;20323;-57
2022/07/09 02:51:16;;;;;;;;;;;;;;;16.73;58.17;99003.97;5123407;27;20113;-57
2022/07/09 02:53:44;;;;;;;;;;;;;;;16.67;58.07;98999.75;5126117;28;19939;-57
2022/07/09 02:56:15;;;;;;;;;;;;;;;16.69;58.04;98997.50;5125715;27;20394;-57
2022/07/09 02:58:45;;;;;;;;;;;;;;;16.70;57.98;99003.78;5126601;27;20204;-57
2022/07/09 03:01:16;;;;;;;;;;;;;;;16.61;58.07;99001.03;5117577;27;20180;-55
2022/07/09 03:03:44;;;;;;;;;;;;;;;16.71;58.07;98997.19;5122382;27;19927;-56
2022/07/09 03:06:19;;;;;;;;;;;;;;;16.68;57.98;98993.13;5126215;27;19923;-57
2022/07/09 03:08:48;;;;;;;;;;;;;;;16.59;58.05;98997.81;5120227;27;19930;-57
2022/07/09 03:11:19;;;;;;;;;;;;;;;16.61;58.14;98995.53;5107706;28;19920;-57
2022/07/09 03:13:48;;;;;;;;;;;;;;;16.53;58.65;98999.13;5128432;27;19949;-57
2022/07/09 03:16:17;;;;;;;;;;;;;;;16.53;58.61;98990.88;5125157;27;19923;-58
2022/07/09 03:18:45;;;;;;;;;;;;;;;16.44;58.54;98995.56;5124343;27;19956;-58
2022/07/09 03:21:16;;;;;;;;;;;;;;;16.59;58.17;98997.81;5125750;28;20398;-57
2022/07/09 03:23:44;;;;;;;;;;;;;;;16.61;57.82;98990.06;5124138;27;19923;-57
2022/07/09 03:26:16;;;;;;;;;;;;;;;16.58;57.86;98998.97;5122106;27;20123;-56
2022/07/09 03:28:44;;;;;;;;;;;;;;;16.55;58.07;98990.56;5111716;27;19919;-58
2022/07/09 03:31:19;;;;;;;;;;;;;;;16.50;58.06;98986.84;5116174;27;19924;-57
2022/07/09 03:33:47;;;;;;;;;;;;;;;16.34;59.05;98985.72;5115270;28;20577;-57
2022/07/09 03:36:22;;;;;;;;;;;;;;;16.33;59.23;98981.38;5115113;27;20286;-58
2022/07/09 03:38:50;;;;;;;;;;;;;;;16.41;59.34;98982.53;5119417;27;19930;-57
2022/07/09 03:41:18;;;;;;;;;;;;;;;16.58;58.52;98985.25;5119095;27;19976;-57
2022/07/09 03:43:46;;;;;;;;;;;;;;;16.55;58.09;98985.06;5118994;27;19942;-57
2022/07/09 03:46:18;;;;;;;;;;;;;;;16.39;58.16;98992.97;5124558;27;19920;-57
2022/07/09 03:48:48;;;;;;;;;;;;;;;16.38;58.45;98986.69;5127786;27;20033;-57
2022/07/09 03:51:16;;;;;;;;;;;;;;;16.38;58.31;98991.38;5126490;27;19919;-57
2022/07/09 03:53:44;;;;;;;;;;;;;;;16.37;58.32;98984.28;5127221;27;20511;-57
2022/07/09 03:56:20;;;;;;;;;;;;;;;16.47;58.02;98986.69;5129055;27;20147;-57
2022/07/09 03:58:48;;;;;;;;;;;;;;;16.47;57.87;98984.75;5127779;27;19938;-57
2022/07/09 04:01:16;;;;;;;;;;;;;;;16.38;58.12;98992.19;5119912;27;19930;-58
2022/07/09 04:03:45;;;;;;;;;;;;;;;16.32;58.42;98981.72;5122745;27;19923;-57
2022/07/09 04:06:20;;;;;;;;;;;;;;;16.35;58.80;98987.38;5119294;27;19927;-56
2022/07/09 04:08:48;;;;;;;;;;;;;;;16.29;59.01;98983.13;5104562;27;19926;-58
2022/07/09 04:11:17;;;;;;;;;;;;;;;16.43;58.91;98981.06;5121386;27;19919;-57
2022/07/09 04:13:47;;;;;;;;;;;;;;;16.27;59.56;98992.84;5122695;27;19923;-57
2022/07/09 04:16:16;;;;;;;;;;;;;;;16.11;60.22;98982.34;5126938;27;19925;-58
2022/07/09 04:18:46;;;;;;;;;;;;;;;16.08;60.57;98982.97;5126867;27;19920;-58
2022/07/09 04:21:17;;;;;;;;;;;;;;;16.15;60.56;98990.75;5127730;27;19923;-57
2022/07/09 04:23:45;;;;;;;;;;;;;;;16.03;60.90;98988.59;5127567;27;19925;-57
2022/07/09 04:26:16;;;;;;;;;;;;;;;16.08;60.64;98998.63;5119917;27;19932;-57
2022/07/09 04:28:44;;;;;;;;;;;;;;;16.13;60.37;98996.53;5119351;27;19928;-58
2022/07/09 04:31:19;;;;;;;;;;;;;;;16.31;60.13;99002.03;5118780;27;20023;-57
2022/07/09 04:33:49;;;;;;;;;;;;;;;16.39;59.74;98992.97;5117446;27;20264;-57
2022/07/09 04:36:17;;;;;;;;;;;;;;;16.39;59.77;98988.31;5116579;27;19940;-58
2022/07/09 04:38:55;;;;;;;;;;;;;;;16.32;59.73;98998.97;5114454;27;20005;-58
2022/07/09 04:41:25;;;;;;;;;;;;;;;16.31;60.01;99004.78;5109696;27;19930;-57
2022/07/09 04:43:53;;;;;;;;;;;;;;;16.28;59.56;98994.44;5116198;27;19920;-55
2022/07/09 04:46:21;;;;;;;;;;;;;;;16.25;60.13;98998.66;5112423;27;19920;-58
2022/07/09 04:48:51;;;;;;;;;;;;;;;16.38;59.73;98994.13;5116263;27;19928;-58
2022/07/09 04:51:22;;;;;;;;;;;;;;;16.30;60.01;98994.91;5114252;27;19920;-58
2022/07/09 04:53:50;;;;;;;;;;;;;;;16.27;59.67;98995.56;5118907;27;19940;-56
2022/07/09 04:56:18;;;;;;;;;;;;;;;16.32;59.63;98989.94;5112306;27;19919;-57
2022/07/09 04:58:52;;;;;;;;;;;;;;;16.40;59.33;98991.84;5110568;27;19930;-57
2022/07/09 05:01:20;;;;;;;;;;;;;;;16.48;58.94;98996.53;5111054;27;19924;-58
2022/07/09 05:03:49;;;;;;;;;;;;;;;16.77;57.78;98990.38;5127093;27;19927;-57
2022/07/09 05:06:22;;;;;;;;;;;;;;;16.68;57.93;98989.59;5127940;27;19920;-58
2022/07/09 05:08:54;;;;;;;;;;;;;;;16.52;58.50;98989.28;5128254;27;20382;-58
2022/07/09 05:11:23;;;;;;;;;;;;;;;16.56;58.43;98992.97;5123828;27;20029;-56
2022/07/09 05:13:51;;;;;;;;;;;;;;;16.67;57.64;98988.78;5104833;28;19931;-57
2022/07/09 05:16:19;;;;;;;;;;;;;;;16.69;57.49;98996.69;5120521;27;19952;-58
2022/07/09 05:18:47;;;;;;;;;;;;;;;16.81;57.40;98990.56;5090209;27;20058;-57
2022/07/09 05:21:16;;;;;;;;;;;;;;;16.76;57.29;98992.34;5126327;27;19934;-57
2022/07/09 05:23:45;;;;;;;;;;;;;;;16.66;57.66;99000.88;5124748;27;19926;-58
2022/07/09 05:26:16;;;;;;;;;;;;;;;16.52;58.56;99000.25;5125112;27;20374;-57
2022/07/09 05:28:44;;;;;;;;;;;;;;;16.68;58.14;98995.06;5121942;27;19925;-57
2022/07/09 05:31:19;;;;;;;;;;;;;;;16.68;57.99;98995.88;5125641;27;20284;-57
2022/07/09 05:34:03;;;;;;;;;;;;;;;16.64;58.36;99000.41;5130099;27;19919;-57
2022/07/09 05:36:35;;;;;;;;;;;;;;;16.65;58.54;98991.03;5120492;27;19926;-57
2022/07/09 05:39:06;;;;;;;;;;;;;;;16.45;59.25;98995.22;5122835;27;19994;-57
2022/07/09 05:41:35;;;;;;;;;;;;;;;16.77;58.26;98993.13;5126554;27;19919;-57
2022/07/09 05:44:03;;;;;;;;;;;;;;;16.76;58.10;98986.84;5130782;27;20402;-57
2022/07/09 05:46:31;;;;;;;;;;;;;;;16.73;58.29;98987.50;5128124;27;20324;-57
2022/07/09 05:48:59;;;;;;;;;;;;;;;16.79;58.33;98984.59;5115971;27;20383;-57
2022/07/09 05:51:27;;;;;;;;;;;;;;;16.76;58.25;98989.59;5117218;27;19926;-57
2022/07/09 05:54:00;;;;;;;;;;;;;;;16.85;57.98;98989.59;5122419;27;19919;-57
2022/07/09 05:56:30;;;;;;;;;;;;;;;16.80;58.05;98987.00;5121291;27;19920;-57
2022/07/09 05:58:58;;;;;;;;;;;;;;;16.91;58.02;98984.72;5122437;27;19927;-56
2022/07/09 06:01:26;;;;;;;;;;;;;;;16.82;58.49;98989.41;5119861;27;19931;-57
2022/07/09 06:03:54;;;;;;;;;;;;;;;17.14;57.59;98986.09;5118249;27;19919;-56
2022/07/09 06:06:22;;;;;;;;;;;;;;;17.12;57.48;98980.13;5103825;27;19919;-58
2022/07/09 06:08:56;;;;;;;;;;;;;;;17.26;57.45;98971.69;5119772;27;19942;-57
2022/07/09 06:11:24;;;;;;;;;;;;;;;17.17;58.05;98974.47;5120214;27;19923;-57
2022/07/09 06:13:53;;;;;;;;;;;;;;;17.25;57.87;98976.34;5118534;27;19919;-57
2022/07/09 06:16:22;;;;;;;;;;;;;;;17.23;57.92;98978.63;5119723;27;19926;-57
2022/07/09 06:19:00;;;;;;;;;;;;;;;17.21;57.78;98980.13;5118452;27;19919;-57
2022/07/09 06:21:28;;;;;;;;;;;;;;;17.31;57.77;98977.00;5121275;27;19919;-57
2022/07/09 06:24:24;;;;;;;;;;;;;;;17.34;57.73;98972.78;5122613;27;20061;-56
2022/07/09 06:26:52;;;;;;;;;;;;;;;17.49;57.37;98969.47;5101490;27;19919;-56
2022/07/09 06:29:22;;;;;;;;;;;;;;;17.51;58.37;98975.44;5121322;27;19923;-60
2022/07/09 06:31:50;;;;;;;;;;;;;;;17.53;58.07;98978.69;5123736;27;19919;-59
2022/07/09 06:34:19;;;;;;;;;;;;;;;17.62;57.83;98984.13;5119621;27;19931;-58
2022/07/09 06:36:48;;;;;;;;;;;;;;;17.91;56.75;98975.09;5123308;27;19930;-58
2022/07/09 06:42:06;;;;;;;;;;;;;;;17.72;57.82;98972.75;5114073;27;19927;-58
2022/07/09 06:45:02;;;;;;;;;;;;;;;17.72;57.76;98972.75;5121405;27;19928;-58
2022/07/09 06:47:30;;;;;;;;;;;;;;;17.74;57.33;98968.56;5119286;28;19937;-58
2022/07/09 06:49:58;;;;;;;;;;;;;;;17.70;57.80;98975.03;5122624;27;19972;-59
2022/07/09 06:52:27;;;;;;;;;;;;;;;17.84;57.33;98969.31;5122061;27;19926;-58
2022/07/09 06:54:55;;;;;;;;;;;;;;;17.76;57.81;98976.47;5120968;27;19920;-58
2022/07/09 06:57:23;;;;;;;;;;;;;;;17.70;57.57;98978.59;5117884;28;19920;-58
2022/07/09 06:59:52;;;;;;;;;;;;;;;17.74;57.58;98976.81;5127389;28;19919;-57
2022/07/09 07:02:29;;;;;;;;;;;;;;;17.75;57.41;98980.38;5117976;27;19984;-58
2022/07/09 07:04:57;;;;;;;;;;;;;;;17.79;57.29;98982.13;5119545;27;19923;-58
2022/07/09 07:07:25;;;;;;;;;;;;;;;17.84;57.26;98974.81;5118325;28;19920;-58
2022/07/09 07:09:53;;;;;;;;;;;;;;;17.86;57.47;98975.28;5119231;27;19926;-57
2022/07/09 07:12:21;;;;;;;;;;;;;;;17.93;57.17;98972.81;5122416;27;19923;-59
2022/07/09 07:14:50;;;;;;;;;;;;;;;17.98;57.05;98980.84;5124830;27;19919;-58
2022/07/09 07:17:18;;;;;;;;;;;;;;;18.05;57.12;98976.44;5118231;27;19930;-58
2022/07/09 07:19:48;;;;;;;;;;;;;;;18.14;56.93;98979.13;5117725;27;19924;-58
2022/07/09 07:22:16;;;;;;;;;;;;;;;18.12;56.96;98981.41;5122861;27;22828;-58
2022/07/09 07:24:45;;;;;;;;;;;;;;;18.26;56.95;98973.69;5124289;27;19919;-58
2022/07/09 07:27:13;;;;;;;;;;;;;;;18.32;56.40;98974.28;5124116;27;19971;-57
2022/07/09 07:29:41;;;;;;;;;;;;;;;18.17;56.47;98969.41;5124479;27;19945;-58
2022/07/09 07:32:09;;;;;;;;;;;;;;;18.30;56.23;98966.38;5128039;27;19923;-58
2022/07/09 07:34:37;;;;;;;;;;;;;;;18.44;56.12;98970.81;5126506;27;20323;-55
2022/07/09 07:37:07;;;;;;;;;;;;;;;18.54;55.57;98970.38;5121240;27;19920;-55
2022/07/09 07:39:35;;;;;;;;;;;;;;;18.68;55.53;98962.66;5124306;27;19919;-56
2022/07/09 07:42:05;;;;;;;;;;;;;;;18.81;55.10;98960.75;5125771;27;19927;-56
2022/07/09 07:44:33;;;;;;;;;;;;;;;18.87;54.75;98956.63;5135209;27;19931;-56
2022/07/09 07:47:01;;;;;;;;;;;;;;;19.01;53.95;98956.31;5122328;27;19919;-56
2022/07/09 07:49:29;;;;;;;;;;;;;;;19.08;53.94;98956.56;5125395;27;19928;-56
2022/07/09 07:51:57;;;;;;;;;;;;;;;19.22;53.56;98959.78;5119341;27;20367;-56
2022/07/09 07:54:27;;;;;;;;;;;;;;;19.25;53.65;98950.84;5127527;27;19939;-56
2022/07/09 07:56:55;;;;;;;;;;;;;;;19.27;53.37;98950.50;5113557;27;20339;-56
2022/07/09 07:59:23;;;;;;;;;;;;;;;19.33;53.28;98954.63;5118482;27;19927;-54
2022/07/09 08:01:51;;;;;;;;;;;;;;;19.32;53.36;98951.06;5124250;27;19926;-56
2022/07/09 08:04:19;;;;;;;;;;;;;;;19.35;53.57;98947.63;5129618;27;20304;-57
2022/07/09 08:06:47;;;;;;;;;;;;;;;19.46;53.68;98936.97;5122603;27;19919;-56
2022/07/09 08:09:16;;;;;;;;;;;;;;;19.58;53.58;98947.16;5118435;27;19926;-56
2022/07/09 08:11:46;;;;;;;;;;;;;;;19.76;53.24;98939.47;5123606;27;20316;-56
2022/07/09 08:14:15;;;;;;;;;;;;;;;19.83;52.94;98931.44;5121939;27;20331;-56
2022/07/09 08:16:48;;;;;;;;;;;;;;;20.08;52.71;98926.66;5118368;27;20144;-57
2022/07/09 08:19:24;;;;;;;;;;;;;;;20.06;52.13;98927.00;5129469;27;19923;-57
2022/07/09 08:22:46;;;;;;;;;;;;;;;20.17;52.11;98923.75;5125546;27;20282;-57
2022/07/09 08:25:14;;;;;;;;;;;;;;;20.05;52.09;98916.31;5119983;27;20267;-56
2022/07/09 08:27:44;;;;;;;;;;;;;;;20.15;52.00;98915.84;5120174;27;20134;-57
2022/07/09 08:30:12;;;;;;;;;;;;;;;20.23;51.78;98925.91;5126131;27;19945;-58
2022/07/09 08:32:40;;;;;;;;;;;;;;;20.27;51.70;98924.06;5124985;27;19931;-57
2022/07/09 08:35:33;;;;;;;;;;;;;;;20.36;52.01;98912.88;5118653;27;19920;-57
2022/07/09 08:38:26;;;;;;;;;;;;;;;20.51;51.92;98912.16;5126994;27;19927;-57
2022/07/09 08:40:54;;;;;;;;;;;;;;;20.72;51.21;98922.97;5126750;27;20308;-57
2022/07/09 08:43:26;;;;;;;;;;;;;;;20.72;50.71;98916.63;5120491;27;19924;-55
2022/07/09 08:45:54;;;;;;;;;;;;;;;20.64;50.79;98910.91;5133140;27;19919;-57
2022/07/09 08:48:28;;;;;;;;;;;;;;;20.52;51.14;98910.19;5138488;27;19919;-55
2022/07/09 08:50:57;;;;;;;;;;;;;;;20.57;51.25;98912.69;5127834;27;19919;-56
2022/07/09 08:53:27;;;;;;;;;;;;;;;20.56;50.97;98903.63;5127774;27;20371;-57
2022/07/09 08:55:55;;;;;;;;;;;;;;;20.64;50.88;98902.63;5120361;27;19936;-57
2022/07/09 08:58:25;;;;;;;;;;;;;;;20.57;49.55;98898.91;5123839;27;19930;-56
2022/07/09 09:00:53;;;;;;;;;;;;;;;20.46;49.00;98892.25;5124732;27;19968;-55
2022/07/09 09:03:21;;;;;;;;;;;;;;;20.55;49.84;98895.66;5117621;27;19975;-57
2022/07/09 09:06:00;;;;;;;;;;;;;;;20.69;49.54;98887.78;5121332;27;19920;-57
2022/07/09 09:08:28;;;;;;;;;;;;;;;20.81;48.78;98881.38;5126134;27;19926;-57
2022/07/09 09:10:56;;;;;;;;;;;;;;;20.73;48.92;98874.88;5125495;27;19919;-57
2022/07/09 09:13:26;;;;;;;;;;;;;;;20.80;48.85;98875.03;5120307;27;19937;-57
2022/07/09 09:16:03;;;;;;;;;;;;;;;20.82;47.47;98864.44;5125040;27;20010;-57
2022/07/09 09:18:31;;;;;;;;;;;;;;;20.82;47.93;98874.69;5120560;27;20304;-58
2022/07/09 09:21:04;;;;;;;;;;;;;;;20.82;47.66;98867.19;5125171;27;19930;-57
2022/07/09 09:23:39;;;;;;;;;;;;;;;20.83;47.53;98868.81;5121577;27;19919;-57
2022/07/09 09:26:19;;;;;;;;;;;;;;;20.66;48.28;98864.41;5119200;27;19997;-57
2022/07/09 09:28:50;;;;;;;;;;;;;;;20.63;48.54;98865.16;5123155;27;20241;-57
2022/07/09 09:31:19;;;;;;;;;;;;;;;20.64;48.98;98868.72;5123914;27;20389;-57
2022/07/09 09:33:48;;;;;;;;;;;;;;;20.62;49.09;98873.78;5088398;27;20340;-57
2022/07/09 09:36:30;;;;;;;;;;;;;;;20.58;49.56;98873.69;5106108;27;19979;-56
2022/07/09 09:39:24;;;;;;;;;;;;;;;20.50;48.53;98876.59;5119035;27;19930;-53
2022/07/09 09:41:53;;;;;;;;;;;;;;;20.53;48.62;98882.22;5123183;27;19972;-55
2022/07/09 09:44:25;;;;;;;;;;;;;;;20.49;48.90;98881.31;5116209;27;19930;-57
2022/07/09 09:46:54;;;;;;;;;;;;;;;20.39;48.57;98879.84;5120782;27;20269;-57
2022/07/09 09:49:23;;;;;;;;;;;;;;;20.33;48.73;98884.00;5116462;27;19932;-54
2022/07/09 09:51:52;;;;;;;;;;;;;;;20.33;49.59;98881.25;5102369;27;19934;-56
2022/07/09 09:54:21;;;;;;;;;;;;;;;20.45;49.48;98877.63;5123961;27;20407;-57
2022/07/09 09:56:50;;;;;;;;;;;;;;;20.45;49.67;98879.59;5123261;27;20205;-56
2022/07/09 09:59:19;;;;;;;;;;;;;;;20.41;49.76;98874.78;5122012;27;19937;-56
2022/07/09 10:01:48;;;;;;;;;;;;;;;20.49;49.98;98875.00;5124825;27;19926;-56
2022/07/09 10:04:16;;;;;;;;;;;;;;;20.53;49.78;98876.72;5124544;27;19919;-56
2022/07/09 10:06:45;;;;;;;;;;;;;;;20.60;49.54;98865.03;5126271;27;19943;-57
2022/07/09 10:09:14;;;;;;;;;;;;;;;20.66;49.50;98869.94;5113410;27;19946;-56
2022/07/09 10:11:42;;;;;;;;;;;;;;;20.74;49.43;98857.13;5118387;27;20268;-57
2022/07/09 10:14:15;;;;;;;;;;;;;;;20.78;48.66;98848.97;5116980;27;20002;-56
2022/07/09 10:16:52;;;;;;;;;;;;;;;20.95;48.64;98845.03;5116067;27;20397;-56
2022/07/09 10:19:24;;;;;;;;;;;;;;;20.95;48.41;98843.06;5131744;27;19919;-57
2022/07/09 10:21:54;;;;;;;;;;;;;;;21.02;47.89;98839.66;5124815;27;20229;-56
2022/07/09 10:24:26;;;;;;;;;;;;;;;21.15;47.53;98838.41;5125928;27;19920;-55
2022/07/09 10:27:03;;;;;;;;;;;;;;;21.17;47.22;98828.59;5122801;27;20355;-56
2022/07/09 10:29:31;;;;;;;;;;;;;;;21.26;47.50;98831.19;5124177;27;19924;-56
2022/07/09 10:32:02;;;;;;;;;;;;;;;21.44;46.52;98834.38;5121492;27;19945;-56
2022/07/09 10:38:24;;;;;;;;;;;;;;;21.79;45.62;98828.81;5123290;27;19926;-56
2022/07/09 10:40:57;;;;;;;;;;;;;;;21.79;44.53;98828.81;5120003;27;19934;-56
2022/07/09 10:43:38;;;;;;;;;;;;;;;21.75;44.90;98836.22;5119841;27;19934;-56
2022/07/09 10:46:10;;;;;;;;;;;;;;;21.51;44.55;98828.19;5126035;27;19920;-56
2022/07/09 10:48:39;;;;;;;;;;;;;;;21.53;45.61;98834.16;5129818;27;20003;-56
2022/07/09 10:51:07;;;;;;;;;;;;;;;21.47;45.32;98836.41;5127352;27;19937;-56
2022/07/09 10:53:36;;;;;;;;;;;;;;;21.29;45.70;98830.44;5129569;27;19928;-57
2022/07/09 10:56:06;;;;;;;;;;;;;;;21.23;46.33;98831.88;5121445;27;19930;-56
2022/07/09 10:58:34;;;;;;;;;;;;;;;21.15;47.23;98841.19;5127927;27;19919;-56
2022/07/09 11:01:06;;;;;;;;;;;;;;;21.00;46.88;98844.75;5121060;27;19931;-56
2022/07/09 11:03:34;;;;;;;;;;;;;;;20.90;47.40;98844.13;5129159;27;19927;-56
2022/07/09 11:06:05;;;;;;;;;;;;;;;20.83;47.55;98845.94;5127208;27;19930;-57
2022/07/09 11:08:34;;;;;;;;;;;;;;;20.77;48.09;98847.31;5116268;27;20017;-56
2022/07/09 11:11:06;;;;;;;;;;;;;;;20.67;48.28;98838.44;5130703;27;19919;-56
2022/07/09 11:13:34;;;;;;;;;;;;;;;20.70;48.71;98839.66;5131187;27;20298;-56
2022/07/09 11:16:05;;;;;;;;;;;;;;;20.74;48.43;98842.53;5130456;27;19938;-56
2022/07/09 11:18:34;;;;;;;;;;;;;;;20.64;48.34;98839.13;5128160;27;19927;-57
2022/07/09 11:21:07;;;;;;;;;;;;;;;20.67;48.63;98843.16;5123222;27;20010;-57
2022/07/09 11:23:35;;;;;;;;;;;;;;;20.65;48.48;98828.88;5127408;27;19919;-55
2022/07/09 11:26:04;;;;;;;;;;;;;;;20.72;48.34;98836.53;5120223;27;20236;-56
2022/07/09 11:28:33;;;;;;;;;;;;;;;20.70;48.02;98836.13;5128614;27;19927;-57
2022/07/09 11:31:04;;;;;;;;;;;;;;;20.74;48.34;98835.03;5123370;27;19926;-56
2022/07/09 11:36:16;;;;;;;;;;;;;;;20.62;48.59;98835.94;5125148;27;20367;-56
2022/07/09 11:38:48;;;;;;;;;;;;;;;20.55;48.69;98829.41;5129362;27;19923;-56
2022/07/09 11:41:16;;;;;;;;;;;;;;;20.70;48.47;98841.63;5129260;27;19919;-58
2022/07/09 11:43:46;;;;;;;;;;;;;;;20.64;48.83;98827.28;5129146;27;20278;-56
2022/07/09 11:46:16;;;;;;;;;;;;;;;20.67;49.22;98830.16;5123114;27;19930;-56
2022/07/09 11:48:49;;;;;;;;;;;;;;;20.75;48.93;98824.81;5129242;27;19919;-56
2022/07/09 11:51:28;;;;;;;;;;;;;;;20.78;48.79;98826.88;5124711;27;19945;-57
2022/07/09 11:53:56;;;;;;;;;;;;;;;20.83;48.76;98827.41;5119607;27;20324;-57
2022/07/09 11:56:24;;;;;;;;;;;;;;;20.90;49.24;98830.31;5121960;27;20227;-57
2022/07/09 11:58:52;;;;;;;;;;;;;;;20.88;49.61;98815.28;5123629;27;19929;-56
2022/07/09 12:01:20;;;;;;;;;;;;;;;20.88;48.09;98826.31;5124652;27;19923;-57
2022/07/09 12:03:49;;;;;;;;;;;;;;;20.95;48.20;98828.47;5127344;27;19926;-58
2022/07/09 12:06:17;;;;;;;;;;;;;;;20.90;48.17;98827.56;5125527;27;19919;-57
2022/07/09 12:09:00;;;;;;;;;;;;;;;20.99;48.19;98821.06;5128023;27;19920;-57
2022/07/09 12:11:30;;;;;;;;;;;;;;;20.97;48.61;98818.63;5128529;27;19919;-57
2022/07/09 12:13:59;;;;;;;;;;;;;;;20.95;47.56;98825.69;5132020;27;19927;-57
2022/07/09 12:16:27;;;;;;;;;;;;;;;20.86;47.51;98823.09;5121099;27;20245;-57
2022/07/09 12:18:56;;;;;;;;;;;;;;;20.85;47.08;98814.03;5133453;27;19926;-57
2022/07/09 12:21:25;;;;;;;;;;;;;;;20.90;47.25;98807.44;5123589;27;20030;-57
2022/07/09 12:23:54;;;;;;;;;;;;;;;20.96;47.22;98810.72;5124092;27;19930;-57
2022/07/09 12:26:23;;;;;;;;;;;;;;;20.90;47.06;98805.47;5124102;27;19924;-58
2022/07/09 12:28:51;;;;;;;;;;;;;;;21.00;46.58;98800.56;5124494;27;20255;-57
2022/07/09 12:31:24;;;;;;;;;;;;;;;21.03;46.89;98797.84;5114474;27;19919;-61
2022/07/09 12:33:52;;;;;;;;;;;;;;;21.17;47.11;98794.63;5127666;27;19930;-57
2022/07/09 12:36:21;;;;;;;;;;;;;;;21.19;46.86;98778.50;5123282;27;19942;-56
2022/07/09 12:39:09;;;;;;;;;;;;;;;21.30;46.62;98784.28;5121861;27;19928;-57
2022/07/09 12:41:39;;;;;;;;;;;;;;;21.31;46.35;98781.19;5097937;27;19927;-57
2022/07/09 12:44:07;;;;;;;;;;;;;;;21.46;46.57;98768.44;5124691;27;19920;-58
2022/07/09 12:46:36;;;;;;;;;;;;;;;21.57;46.23;98769.50;5126512;27;19919;-57
2022/07/09 12:49:04;;;;;;;;;;;;;;;21.48;46.75;98765.34;5122549;27;19926;-57
2022/07/09 12:51:32;;;;;;;;;;;;;;;21.62;46.32;98765.63;5125552;27;19937;-57
2022/07/09 12:54:00;;;;;;;;;;;;;;;21.68;46.43;98758.66;5125402;27;20383;-56
2022/07/09 12:56:28;;;;;;;;;;;;;;;21.67;46.13;98751.50;5129405;27;20276;-58
2022/07/09 12:59:18;;;;;;;;;;;;;;;21.69;46.23;98749.19;5127324;27;20230;-57
2022/07/09 13:01:46;;;;;;;;;;;;;;;21.80;46.30;98744.66;5133032;27;19919;-57
2022/07/09 13:04:14;;;;;;;;;;;;;;;21.83;45.95;98741.16;5125167;27;19920;-55
2022/07/09 13:06:42;;;;;;;;;;;;;;;22.02;46.25;98736.78;5125020;27;20753;-55
2022/07/09 13:09:12;;;;;;;;;;;;;;;21.92;45.85;98730.66;5121392;27;19926;-55
2022/07/09 13:11:44;;;;;;;;;;;;;;;21.90;46.25;98721.94;5121078;27;19923;-55
2022/07/09 13:14:12;;;;;;;;;;;;;;;21.79;46.06;98718.19;5129803;27;19931;-53
2022/07/09 13:19:54;;;;;;;;;;;;;;;21.85;45.16;98713.94;5124681;27;19920;-55